Погода Оружбана неделю

Республика Дагестан, Россия

21 - 27 мая
  • 21мая
    Сегодня
    +9°
    +24°
    Ясно и безоблачно
    ВремяПогодаТемператураВлажностьДавлениеВетер, м/сВероятность осадков
    00:00Ясно и безоблачно+12°C88 %750 мм2.2 м/с2 %
    03:00Ясно и безоблачно+11°C84 %750 мм2.1 м/с2 %
    06:00Ясно и безоблачно+13°C71 %751 мм2.1 м/с2 %
    09:00Ясно и безоблачно+21°C44 %752 мм1.1 м/с2 %
    12:00Ясно и безоблачно+24°C35 %752 мм3.5 м/с6 %
    15:00Ясно и безоблачно+22°C40 %752 мм3.2 м/с12 %
    18:00Ясно и безоблачно+19°C57 %752 мм1.4 м/с7 %
    21:00Ясно и безоблачно+15°C75 %753 мм1.2 м/с2 %
  • 22мая
    Среда
    +11°
    +23°
    Небольшая облачность
    ВремяПогодаТемператураВлажностьДавлениеВетер, м/сВероятность осадков
    00:00Ясно и безоблачно+11°C88 %751 мм1.8 м/с2 %
    03:00Ясно и безоблачно+10°C91 %751 мм1.9 м/с2 %
    06:00Ясно и безоблачно+14°C75 %751 мм1.9 м/с2 %
    09:00Облачно с прояснениями+21°C45 %751 мм3.1 м/с2 %
    12:00Облачно с прояснениями+24°C45 %750 мм4.5 м/с3 %
    15:00Небольшая облачность+22°C46 %750 мм4.3 м/с5 %
    18:00Облачно с прояснениями+19°C59 %749 мм2.6 м/с5 %
    21:00Ясно и безоблачно+16°C84 %750 мм1.7 м/с6 %
  • 23мая
    Четверг
    +13°
    +25°
    Практически безоблачно
    ВремяПогодаТемператураВлажностьДавлениеВетер, м/сВероятность осадков
    00:00Ясно и безоблачно+14°C88 %748 мм1.1 м/с4 %
    03:00Ясно и безоблачно+12°C94 %748 мм1.8 м/с3 %
    06:00Ясно и безоблачно+16°C76 %748 мм1.8 м/с4 %
    09:00Ясно и безоблачно+22°C55 %748 мм1.6 м/с3 %
    12:00Практически безоблачно+24°C54 %747 мм3.6 м/с16 %
    15:00Практически безоблачно+23°C55 %747 мм3.0 м/с29 %
    18:00Практически безоблачно+20°C66 %747 мм1.2 м/с15 %
    21:00Практически безоблачно+17°C81 %748 мм0.4 м/с8 %
  • 24мая
    Пятница
    +13°
    +26°
    Облачно с прояснениями
    ВремяПогодаТемператураВлажностьДавлениеВетер, м/сВероятность осадков
    00:00Практически безоблачно+15°C95 %748 мм0.8 м/с12 %
    03:00Практически безоблачно+14°C94 %748 мм0.8 м/с8 %
    06:00Облачно с прояснениями+16°C84 %749 мм1.2 м/с3 %
    09:00Небольшая облачность+22°C62 %750 мм1.8 м/с7 %
    12:00Небольшая облачность+25°C50 %750 мм3.5 м/с19 %
    15:00Облачно с прояснениями+23°C54 %750 мм3.5 м/с36 %
    18:00Облачно с прояснениями+20°C68 %751 мм2.1 м/с14 %
    21:00Пасмурно, сплошная облачность+18°C84 %752 мм0.7 м/с19 %
Мы используем cookies
Соглашаюсь